sensor_id;sensor_type;location;lat;lon;timestamp;pressure;altitude;pressure_sealevel;temperature;humidity
43711;BME280;29309;42.682;23.372;2023-03-22T00:00:24;94868.13;;;9.93;90.62
43711;BME280;29309;42.682;23.372;2023-03-22T00:02:52;94868.66;;;9.89;90.45
43711;BME280;29309;42.682;23.372;2023-03-22T00:05:18;94867.13;;;9.86;90.85
43711;BME280;29309;42.682;23.372;2023-03-22T00:07:43;94869.16;;;9.86;91.16
43711;BME280;29309;42.682;23.372;2023-03-22T00:10:10;94865.06;;;9.87;91.40
43711;BME280;29309;42.682;23.372;2023-03-22T00:12:35;94858.69;;;9.84;91.54
43711;BME280;29309;42.682;23.372;2023-03-22T00:15:01;94858.59;;;9.82;92.25
43711;BME280;29309;42.682;23.372;2023-03-22T00:17:26;94864.97;;;9.85;92.24
43711;BME280;29309;42.682;23.372;2023-03-22T00:19:52;94853.78;;;9.83;92.32
43711;BME280;29309;42.682;23.372;2023-03-22T00:22:19;94858.69;;;9.84;92.63
43711;BME280;29309;42.682;23.372;2023-03-22T00:24:44;94856.56;;;9.83;92.69
43711;BME280;29309;42.682;23.372;2023-03-22T00:27:10;94853.97;;;9.87;92.65
43711;BME280;29309;42.682;23.372;2023-03-22T00:29:36;94861.56;;;9.86;92.66
43711;BME280;29309;42.682;23.372;2023-03-22T00:32:01;94867.72;;;9.85;92.84
43711;BME280;29309;42.682;23.372;2023-03-22T00:34:31;94857.28;;;9.83;92.56
43711;BME280;29309;42.682;23.372;2023-03-22T00:36:57;94856.44;;;9.81;92.68
43711;BME280;29309;42.682;23.372;2023-03-22T00:39:22;94847.94;;;9.77;92.72
43711;BME280;29309;42.682;23.372;2023-03-22T00:41:48;94849.91;;;9.74;93.07
43711;BME280;29309;42.682;23.372;2023-03-22T00:44:13;94854.00;;;9.73;93.23
43711;BME280;29309;42.682;23.372;2023-03-22T00:46:39;94850.34;;;9.69;93.36
43711;BME280;29309;42.682;23.372;2023-03-22T00:49:05;94847.56;;;9.69;93.56
43711;BME280;29309;42.682;23.372;2023-03-22T00:51:30;94848.31;;;9.69;93.33
43711;BME280;29309;42.682;23.372;2023-03-22T00:53:55;94849.19;;;9.74;93.73
43711;BME280;29309;42.682;23.372;2023-03-22T00:56:21;94844.09;;;9.68;93.68
43711;BME280;29309;42.682;23.372;2023-03-22T00:58:49;94842.22;;;9.73;93.68
43711;BME280;29309;42.682;23.372;2023-03-22T01:01:15;94849.28;;;9.76;93.59
43711;BME280;29309;42.682;23.372;2023-03-22T01:03:42;94846.34;;;9.72;93.50
43711;BME280;29309;42.682;23.372;2023-03-22T01:06:08;94840.06;;;9.71;93.81
43711;BME280;29309;42.682;23.372;2023-03-22T01:08:34;94843.56;;;9.72;93.91
43711;BME280;29309;42.682;23.372;2023-03-22T01:11:03;94840.59;;;9.68;94.04
43711;BME280;29309;42.682;23.372;2023-03-22T01:13:28;94830.66;;;9.63;94.03
43711;BME280;29309;42.682;23.372;2023-03-22T01:15:54;94834.94;;;9.66;94.44
43711;BME280;29309;42.682;23.372;2023-03-22T01:18:19;94831.28;;;9.61;93.91
43711;BME280;29309;42.682;23.372;2023-03-22T01:20:44;94829.13;;;9.60;94.02
43711;BME280;29309;42.682;23.372;2023-03-22T01:23:10;94828.41;;;9.59;94.16
43711;BME280;29309;42.682;23.372;2023-03-22T01:25:35;94827.50;;;9.55;93.88
43711;BME280;29309;42.682;23.372;2023-03-22T01:28:01;94823.38;;;9.56;93.61
43711;BME280;29309;42.682;23.372;2023-03-22T01:30:27;94826.25;;;9.58;93.66
43711;BME280;29309;42.682;23.372;2023-03-22T01:32:53;94830.56;;;9.61;93.19
43711;BME280;29309;42.682;23.372;2023-03-22T01:35:19;94813.75;;;9.57;93.27
43711;BME280;29309;42.682;23.372;2023-03-22T01:37:44;94819.91;;;9.55;93.20
43711;BME280;29309;42.682;23.372;2023-03-22T01:40:13;94824.81;;;9.57;92.99
43711;BME280;29309;42.682;23.372;2023-03-22T01:42:38;94817.75;;;9.54;93.09
43711;BME280;29309;42.682;23.372;2023-03-22T01:47:47;94812.03;;;9.50;93.38
43711;BME280;29309;42.682;23.372;2023-03-22T01:50:16;94817.47;;;9.48;93.02
43711;BME280;29309;42.682;23.372;2023-03-22T01:52:43;94816.66;;;9.45;93.05
43711;BME280;29309;42.682;23.372;2023-03-22T01:55:08;94813.06;;;9.43;93.37
43711;BME280;29309;42.682;23.372;2023-03-22T01:57:35;94811.63;;;9.42;93.86
43711;BME280;29309;42.682;23.372;2023-03-22T02:00:04;94812.88;;;9.38;93.62
43711;BME280;29309;42.682;23.372;2023-03-22T02:02:37;94812.88;;;9.38;93.61
43711;BME280;29309;42.682;23.372;2023-03-22T02:05:03;94810.72;;;9.37;93.51
43711;BME280;29309;42.682;23.372;2023-03-22T02:07:29;94811.97;;;9.34;93.25
43711;BME280;29309;42.682;23.372;2023-03-22T02:09:56;94819.47;;;9.31;93.51
43711;BME280;29309;42.682;23.372;2023-03-22T02:12:57;94815.88;;;9.29;93.68
43711;BME280;29309;42.682;23.372;2023-03-22T02:15:34;94811.59;;;9.26;94.24
43711;BME280;29309;42.682;23.372;2023-03-22T02:18:48;94822.56;;;9.24;94.20
43711;BME280;29309;42.682;23.372;2023-03-22T02:26:56;94824.59;;;9.23;94.70
43711;BME280;29309;42.682;23.372;2023-03-22T02:35:00;94829.53;;;9.25;95.73
43711;BME280;29309;42.682;23.372;2023-03-22T02:40:48;94836.84;;;9.18;95.76
43711;BME280;29309;42.682;23.372;2023-03-22T02:46:17;94839.59;;;9.18;95.92
43711;BME280;29309;42.682;23.372;2023-03-22T02:51:20;94839.59;;;9.18;96.27
43711;BME280;29309;42.682;23.372;2023-03-22T02:53:53;94839.69;;;9.20;95.83
43711;BME280;29309;42.682;23.372;2023-03-22T02:56:52;94841.75;;;9.20;96.23
43711;BME280;29309;42.682;23.372;2023-03-22T02:59:20;94836.84;;;9.18;95.86
43711;BME280;29309;42.682;23.372;2023-03-22T03:01:51;94840.22;;;9.17;96.07
43711;BME280;29309;42.682;23.372;2023-03-22T03:04:23;94836.84;;;9.18;96.34
43711;BME280;29309;42.682;23.372;2023-03-22T03:06:53;94836.13;;;9.18;96.12
43711;BME280;29309;42.682;23.372;2023-03-22T03:09:20;94838.38;;;9.21;96.18
43711;BME280;29309;42.682;23.372;2023-03-22T03:11:49;94838.25;;;9.19;96.13
43711;BME280;29309;42.682;23.372;2023-03-22T03:14:27;94841.66;;;9.18;95.60
43711;BME280;29309;42.682;23.372;2023-03-22T03:17:04;94835.19;;;9.13;96.07
43711;BME280;29309;42.682;23.372;2023-03-22T03:20:03;94849.25;;;9.17;95.97
43711;BME280;29309;42.682;23.372;2023-03-22T03:25:26;94847.91;;;9.18;96.11
43711;BME280;29309;42.682;23.372;2023-03-22T03:28:07;94841.75;;;9.20;95.83
43711;BME280;29309;42.682;23.372;2023-03-22T03:30:46;94845.84;;;9.19;95.69
43711;BME280;29309;42.682;23.372;2023-03-22T03:33:15;94847.19;;;9.18;95.38
43711;BME280;29309;42.682;23.372;2023-03-22T03:35:50;94852.81;;;9.20;95.10
43711;BME280;29309;42.682;23.372;2023-03-22T03:38:22;94849.34;;;9.19;95.32
43711;BME280;29309;42.682;23.372;2023-03-22T03:40:54;94843.72;;;9.17;94.54
43711;BME280;29309;42.682;23.372;2023-03-22T03:43:22;94847.91;;;9.18;94.70
43711;BME280;29309;42.682;23.372;2023-03-22T03:45:50;94846.47;;;9.17;94.87
43711;BME280;29309;42.682;23.372;2023-03-22T03:48:22;94852.81;;;9.20;94.19
43711;BME280;29309;42.682;23.372;2023-03-22T03:50:51;94852.00;;;9.17;93.96
43711;BME280;29309;42.682;23.372;2023-03-22T03:53:17;94852.75;;;9.18;93.87
43711;BME280;29309;42.682;23.372;2023-03-22T03:55:42;94846.28;;;9.13;93.87
43711;BME280;29309;42.682;23.372;2023-03-22T03:58:08;94848.25;;;9.11;93.64
43711;BME280;29309;42.682;23.372;2023-03-22T04:00:35;94863.50;;;9.12;93.20
43711;BME280;29309;42.682;23.372;2023-03-22T04:03:01;94864.00;;;9.08;93.34
43711;BME280;29309;42.682;23.372;2023-03-22T04:05:26;94849.56;;;9.10;93.62
43711;BME280;29309;42.682;23.372;2023-03-22T04:07:52;94857.88;;;9.10;93.72
43711;BME280;29309;42.682;23.372;2023-03-22T04:10:17;94859.81;;;9.07;93.86
43711;BME280;29309;42.682;23.372;2023-03-22T04:12:43;94864.00;;;9.08;93.86
43711;BME280;29309;42.682;23.372;2023-03-22T04:15:09;94865.25;;;9.05;94.13
43711;BME280;29309;42.682;23.372;2023-03-22T04:17:36;94862.69;;;9.09;93.79
43711;BME280;29309;42.682;23.372;2023-03-22T04:20:02;94870.91;;;9.07;93.91
43711;BME280;29309;42.682;23.372;2023-03-22T04:22:28;94864.44;;;9.03;94.24
43711;BME280;29309;42.682;23.372;2023-03-22T04:25:01;94865.78;;;9.02;94.77
43711;BME280;29309;42.682;23.372;2023-03-22T04:27:27;94873.56;;;9.05;94.77
43711;BME280;29309;42.682;23.372;2023-03-22T04:29:53;94871.72;;;9.10;94.96
43711;BME280;29309;42.682;23.372;2023-03-22T04:32:20;94873.03;;;9.09;95.01
43711;BME280;29309;42.682;23.372;2023-03-22T04:34:50;94866.59;;;9.04;95.06
43711;BME280;29309;42.682;23.372;2023-03-22T04:37:17;94872.44;;;9.10;94.87
43711;BME280;29309;42.682;23.372;2023-03-22T04:39:43;94876.53;;;9.09;94.83
43711;BME280;29309;42.682;23.372;2023-03-22T04:42:09;94879.41;;;9.11;94.42
43711;BME280;29309;42.682;23.372;2023-03-22T04:44:35;94868.13;;;9.07;94.16
43711;BME280;29309;42.682;23.372;2023-03-22T04:47:01;94878.50;;;9.07;94.14
43711;BME280;29309;42.682;23.372;2023-03-22T04:49:27;94876.31;;;9.05;94.75
43711;BME280;29309;42.682;23.372;2023-03-22T04:51:53;94879.72;;;9.04;94.37
43711;BME280;29309;42.682;23.372;2023-03-22T04:54:19;94884.44;;;9.01;94.58
43711;BME280;29309;42.682;23.372;2023-03-22T04:56:45;94888.75;;;9.04;94.82
43711;BME280;29309;42.682;23.372;2023-03-22T04:59:10;94887.31;;;9.03;94.67
43711;BME280;29309;42.682;23.372;2023-03-22T05:01:36;94897.06;;;9.04;94.32
43711;BME280;29309;42.682;23.372;2023-03-22T05:04:02;94892.03;;;9.01;94.67
43711;BME280;29309;42.682;23.372;2023-03-22T05:06:28;94899.09;;;9.04;94.49
43711;BME280;29309;42.682;23.372;2023-03-22T05:08:57;94894.91;;;9.03;94.70
43711;BME280;29309;42.682;23.372;2023-03-22T05:11:23;94898.78;;;8.98;94.58
43711;BME280;29309;42.682;23.372;2023-03-22T05:13:54;94893.88;;;8.96;94.50
43711;BME280;29309;42.682;23.372;2023-03-22T05:16:20;94900.94;;;8.99;94.68
43711;BME280;29309;42.682;23.372;2023-03-22T05:18:46;94897.16;;;8.93;94.58
43711;BME280;29309;42.682;23.372;2023-03-22T05:21:13;94908.44;;;8.97;94.69
43711;BME280;29309;42.682;23.372;2023-03-22T05:23:40;94913.97;;;8.97;94.86
43711;BME280;29309;42.682;23.372;2023-03-22T05:26:07;94915.91;;;8.94;95.49
43711;BME280;29309;42.682;23.372;2023-03-22T05:28:33;94909.78;;;8.96;95.12
43711;BME280;29309;42.682;23.372;2023-03-22T05:31:00;94915.41;;;8.98;94.88
43711;BME280;29309;42.682;23.372;2023-03-22T05:33:25;94916.13;;;8.98;94.95
43711;BME280;29309;42.682;23.372;2023-03-22T05:35:52;94917.56;;;8.99;94.59
43711;BME280;29309;42.682;23.372;2023-03-22T05:38:18;94916.31;;;9.02;95.21
43711;BME280;29309;42.682;23.372;2023-03-22T05:40:43;94925.34;;;9.03;95.19
43711;BME280;29309;42.682;23.372;2023-03-22T05:43:09;94917.03;;;9.03;94.78
43711;BME280;29309;42.682;23.372;2023-03-22T05:45:35;94912.44;;;9.07;94.97
43711;BME280;29309;42.682;23.372;2023-03-22T05:48:02;94918.06;;;9.09;94.58
43711;BME280;29309;42.682;23.372;2023-03-22T05:50:27;94922.06;;;9.06;94.58
43711;BME280;29309;42.682;23.372;2023-03-22T05:52:53;94919.50;;;9.10;94.64
43711;BME280;29309;42.682;23.372;2023-03-22T05:55:18;94934.06;;;9.11;93.91
43711;BME280;29309;42.682;23.372;2023-03-22T05:57:45;94935.50;;;9.12;94.32
43711;BME280;29309;42.682;23.372;2023-03-22T06:00:13;94937.66;;;9.13;94.22
43711;BME280;29309;42.682;23.372;2023-03-22T06:02:41;94940.53;;;9.15;93.78
43711;BME280;29309;42.682;23.372;2023-03-22T06:05:08;94942.09;;;9.18;93.83
43711;BME280;29309;42.682;23.372;2023-03-22T06:07:35;94941.34;;;9.18;93.77
43711;BME280;29309;42.682;23.372;2023-03-22T06:10:01;94939.91;;;9.17;93.74
43711;BME280;29309;42.682;23.372;2023-03-22T06:12:28;94940.53;;;9.15;93.00
43711;BME280;29309;42.682;23.372;2023-03-22T06:14:54;94942.09;;;9.18;92.68
43711;BME280;29309;42.682;23.372;2023-03-22T06:17:19;94946.25;;;9.19;92.67
43711;BME280;29309;42.682;23.372;2023-03-22T06:19:45;94943.50;;;9.19;93.13
43711;BME280;29309;42.682;23.372;2023-03-22T06:22:11;94940.00;;;9.19;92.86
43711;BME280;29309;42.682;23.372;2023-03-22T06:24:37;94956.75;;;9.21;93.03
43711;BME280;29309;42.682;23.372;2023-03-22T06:27:05;94953.38;;;9.22;93.25
43711;BME280;29309;42.682;23.372;2023-03-22T06:29:30;94952.84;;;9.26;93.26
43711;BME280;29309;42.682;23.372;2023-03-22T06:31:56;94952.72;;;9.24;93.18
43711;BME280;29309;42.682;23.372;2023-03-22T06:34:21;94943.91;;;9.27;93.29
43711;BME280;29309;42.682;23.372;2023-03-22T06:36:47;94957.53;;;9.37;93.04
43711;BME280;29309;42.682;23.372;2023-03-22T06:39:12;94956.13;;;9.36;93.06
43711;BME280;29309;42.682;23.372;2023-03-22T06:41:38;94963.41;;;9.43;92.74
43711;BME280;29309;42.682;23.372;2023-03-22T06:44:03;94971.28;;;9.49;92.71
43711;BME280;29309;42.682;23.372;2023-03-22T06:46:29;94962.25;;;9.48;92.74
43711;BME280;29309;42.682;23.372;2023-03-22T06:48:54;94958.28;;;9.51;92.83
43711;BME280;29309;42.682;23.372;2023-03-22T06:51:20;94963.47;;;9.59;91.89
43711;BME280;29309;42.682;23.372;2023-03-22T06:53:45;94972.81;;;9.65;92.21
43711;BME280;29309;42.682;23.372;2023-03-22T06:56:11;94963.06;;;9.64;91.96
43711;BME280;29309;42.682;23.372;2023-03-22T06:58:36;94971.78;;;9.72;92.15
43711;BME280;29309;42.682;23.372;2023-03-22T07:01:02;94978.22;;;9.77;91.72
43711;BME280;29309;42.682;23.372;2023-03-22T07:03:27;94976.91;;;9.78;90.95
43711;BME280;29309;42.682;23.372;2023-03-22T07:06:00;94984.69;;;9.81;90.52
43711;BME280;29309;42.682;23.372;2023-03-22T07:08:25;94979.88;;;9.82;90.14
43711;BME280;29309;42.682;23.372;2023-03-22T07:10:51;94993.13;;;9.83;89.96
43711;BME280;29309;42.682;23.372;2023-03-22T07:13:16;94989.72;;;9.85;90.22
43711;BME280;29309;42.682;23.372;2023-03-22T07:15:42;94989.09;;;9.86;89.63
43711;BME280;29309;42.682;23.372;2023-03-22T07:18:07;95000.47;;;9.93;88.97
43711;BME280;29309;42.682;23.372;2023-03-22T07:20:33;94994.75;;;9.88;87.76
43711;BME280;29309;42.682;23.372;2023-03-22T07:23:01;94996.59;;;9.84;88.08
43711;BME280;29309;42.682;23.372;2023-03-22T07:25:26;94998.97;;;9.89;88.11
43711;BME280;29309;42.682;23.372;2023-03-22T07:27:52;95005.41;;;9.94;88.38
43711;BME280;29309;42.682;23.372;2023-03-22T07:30:17;95000.06;;;9.98;88.61
43711;BME280;29309;42.682;23.372;2023-03-22T07:32:43;95008.56;;;10.02;88.77
43711;BME280;29309;42.682;23.372;2023-03-22T07:35:08;95011.44;;;10.04;88.71
43711;BME280;29309;42.682;23.372;2023-03-22T07:37:34;95005.19;;;10.04;88.32
43711;BME280;29309;42.682;23.372;2023-03-22T07:39:59;95008.56;;;10.02;87.76
43711;BME280;29309;42.682;23.372;2023-03-22T07:42:25;95013.31;;;10.00;86.88
43711;BME280;29309;42.682;23.372;2023-03-22T07:44:50;95016.00;;;9.98;85.90
43711;BME280;29309;42.682;23.372;2023-03-22T07:47:16;95013.94;;;9.98;85.76
43711;BME280;29309;42.682;23.372;2023-03-22T07:49:41;95018.03;;;9.97;85.28
43711;BME280;29309;42.682;23.372;2023-03-22T07:52:07;95018.75;;;9.98;85.15
43711;BME280;29309;42.682;23.372;2023-03-22T07:54:33;95019.56;;;10.00;85.39
43711;BME280;29309;42.682;23.372;2023-03-22T07:56:58;95021.53;;;9.98;86.03
43711;BME280;29309;42.682;23.372;2023-03-22T07:59:24;95022.16;;;9.96;86.37
43711;BME280;29309;42.682;23.372;2023-03-22T08:01:49;95028.41;;;9.97;87.04
43711;BME280;29309;42.682;23.372;2023-03-22T08:04:15;95023.38;;;9.93;86.32
43711;BME280;29309;42.682;23.372;2023-03-22T08:06:41;95022.06;;;9.94;86.73
43711;BME280;29309;42.682;23.372;2023-03-22T08:09:07;95022.78;;;9.95;86.98
43711;BME280;29309;42.682;23.372;2023-03-22T08:11:34;95026.16;;;9.93;86.94
43711;BME280;29309;42.682;23.372;2023-03-22T08:13:59;95015.28;;;9.97;86.79
43711;BME280;29309;42.682;23.372;2023-03-22T08:16:25;95017.31;;;9.97;86.62
43711;BME280;29309;42.682;23.372;2023-03-22T08:18:51;95020.28;;;10.01;87.22
43711;BME280;29309;42.682;23.372;2023-03-22T08:21:16;95019.66;;;10.02;87.07
43711;BME280;29309;42.682;23.372;2023-03-22T08:23:42;95017.72;;;10.05;86.92
43711;BME280;29309;42.682;23.372;2023-03-22T08:26:08;95022.53;;;10.04;87.04
43711;BME280;29309;42.682;23.372;2023-03-22T08:28:34;95025.31;;;10.04;86.84
43711;BME280;29309;42.682;23.372;2023-03-22T08:30:59;95034.38;;;10.05;86.24
43711;BME280;29309;42.682;23.372;2023-03-22T08:33:25;95035.09;;;10.05;86.51
43711;BME280;29309;42.682;23.372;2023-03-22T08:35:50;95033.00;;;10.06;86.39
43711;BME280;29309;42.682;23.372;2023-03-22T08:38:19;95032.41;;;10.07;86.20
43711;BME280;29309;42.682;23.372;2023-03-22T08:40:45;95040.13;;;10.09;86.39
43711;BME280;29309;42.682;23.372;2023-03-22T08:43:11;95034.56;;;10.09;86.18
43711;BME280;29309;42.682;23.372;2023-03-22T08:45:36;95031.06;;;10.08;86.36
43711;BME280;29309;42.682;23.372;2023-03-22T08:48:02;95040.31;;;10.13;86.36
43711;BME280;29309;42.682;23.372;2023-03-22T08:50:28;95037.53;;;10.13;86.10
43711;BME280;29309;42.682;23.372;2023-03-22T08:52:53;95043.78;;;10.13;85.80
43711;BME280;29309;42.682;23.372;2023-03-22T08:55:20;95042.69;;;10.18;86.24
43711;BME280;29309;42.682;23.372;2023-03-22T08:57:46;95038.56;;;10.19;86.25
43711;BME280;29309;42.682;23.372;2023-03-22T09:00:15;95043.06;;;10.26;86.03
43711;BME280;29309;42.682;23.372;2023-03-22T09:02:41;95041.03;;;10.27;85.55
43711;BME280;29309;42.682;23.372;2023-03-22T09:05:07;95038.84;;;10.25;85.52
43711;BME280;29309;42.682;23.372;2023-03-22T09:07:33;95047.38;;;10.29;85.59
43711;BME280;29309;42.682;23.372;2023-03-22T09:09:58;95051.59;;;10.30;86.16
43711;BME280;29309;42.682;23.372;2023-03-22T09:12:24;95055.97;;;10.35;86.23
43711;BME280;29309;42.682;23.372;2023-03-22T09:14:50;95047.13;;;10.39;85.75
43711;BME280;29309;42.682;23.372;2023-03-22T09:17:16;95058.94;;;10.40;85.69
43711;BME280;29309;42.682;23.372;2023-03-22T09:19:43;95059.22;;;10.46;85.95
43711;BME280;29309;42.682;23.372;2023-03-22T09:22:08;95053.69;;;10.46;85.55
43711;BME280;29309;42.682;23.372;2023-03-22T09:24:33;95065.69;;;10.50;85.98
43711;BME280;29309;42.682;23.372;2023-03-22T09:26:59;95057.50;;;10.52;86.20
43711;BME280;29309;42.682;23.372;2023-03-22T09:29:24;95051.31;;;10.54;85.89
43711;BME280;29309;42.682;23.372;2023-03-22T09:31:50;95058.91;;;10.53;85.87
43711;BME280;29309;42.682;23.372;2023-03-22T09:34:15;95051.41;;;10.56;85.43
43711;BME280;29309;42.682;23.372;2023-03-22T09:36:41;95051.31;;;10.54;85.58
43711;BME280;29309;42.682;23.372;2023-03-22T09:39:07;95044.69;;;10.61;85.45
43711;BME280;29309;42.682;23.372;2023-03-22T09:41:43;95057.25;;;10.62;84.85
43711;BME280;29309;42.682;23.372;2023-03-22T09:44:24;95058.50;;;10.59;84.52
43711;BME280;29309;42.682;23.372;2023-03-22T09:46:53;95062.19;;;10.63;84.42
43711;BME280;29309;42.682;23.372;2023-03-22T09:49:43;95058.69;;;10.63;84.66
43711;BME280;29309;42.682;23.372;2023-03-22T09:52:13;95057.25;;;10.62;84.27
43711;BME280;29309;42.682;23.372;2023-03-22T09:54:40;95063.78;;;10.68;83.87
43711;BME280;29309;42.682;23.372;2023-03-22T10:10:24;95070.09;;;10.84;82.73
43711;BME280;29309;42.682;23.372;2023-03-22T10:16:05;95079.31;;;10.89;81.91
43711;BME280;29309;42.682;23.372;2023-03-22T10:18:35;95079.44;;;10.91;81.99
43711;BME280;29309;42.682;23.372;2023-03-22T10:21:10;95078.19;;;10.94;81.35
43711;BME280;29309;42.682;23.372;2023-03-22T10:29:13;95082.66;;;11.01;81.31
43711;BME280;29309;42.682;23.372;2023-03-22T10:31:42;95074.44;;;11.03;81.78
43711;BME280;29309;42.682;23.372;2023-03-22T10:34:21;95068.88;;;11.03;81.16
43711;BME280;29309;42.682;23.372;2023-03-22T10:36:49;95069.69;;;11.06;81.24
43711;BME280;29309;42.682;23.372;2023-03-22T10:39:26;95071.22;;;11.09;80.98
43711;BME280;29309;42.682;23.372;2023-03-22T10:41:54;95069.06;;;11.07;80.85
43711;BME280;29309;42.682;23.372;2023-03-22T10:44:21;95076.16;;;11.10;80.67
43711;BME280;29309;42.682;23.372;2023-03-22T10:46:50;95071.22;;;11.09;80.61
43711;BME280;29309;42.682;23.372;2023-03-22T10:49:36;95067.09;;;11.10;80.79
43711;BME280;29309;42.682;23.372;2023-03-22T10:52:08;95076.25;;;11.12;81.15
43711;BME280;29309;42.682;23.372;2023-03-22T10:54:42;95071.94;;;11.09;81.26
43711;BME280;29309;42.682;23.372;2023-03-22T10:57:08;95065.03;;;11.10;80.73
43711;BME280;29309;42.682;23.372;2023-03-22T11:04:46;95061.00;;;11.13;79.36
43711;BME280;29309;42.682;23.372;2023-03-22T11:07:25;95063.69;;;11.11;78.58
43711;BME280;29309;42.682;23.372;2023-03-22T11:10:10;95065.75;;;11.11;77.75
43711;BME280;29309;42.682;23.372;2023-03-22T11:12:40;95063.06;;;11.13;77.63
43711;BME280;29309;42.682;23.372;2023-03-22T11:15:27;95056.59;;;11.08;78.32
43711;BME280;29309;42.682;23.372;2023-03-22T11:18:04;95064.50;;;11.14;77.19
43711;BME280;29309;42.682;23.372;2023-03-22T11:20:31;95064.59;;;11.16;76.51
43711;BME280;29309;42.682;23.372;2023-03-22T11:22:59;95063.97;;;11.17;75.98
43711;BME280;29309;42.682;23.372;2023-03-22T11:25:28;95064.66;;;11.18;75.91
43711;BME280;29309;42.682;23.372;2023-03-22T11:30:30;95058.41;;;11.17;77.06
43711;BME280;29309;42.682;23.372;2023-03-22T11:33:18;95056.19;;;11.14;76.85
43711;BME280;29309;42.682;23.372;2023-03-22T11:35:46;95059.66;;;11.14;76.69
43711;BME280;29309;42.682;23.372;2023-03-22T11:38:36;95060.47;;;11.17;76.88
43711;BME280;29309;42.682;23.372;2023-03-22T11:41:06;95049.91;;;11.13;76.65
43711;BME280;29309;42.682;23.372;2023-03-22T11:43:41;95056.06;;;11.12;76.06
43711;BME280;29309;42.682;23.372;2023-03-22T11:46:15;95049.78;;;11.11;76.25
43711;BME280;29309;42.682;23.372;2023-03-22T11:48:45;95052.69;;;11.13;76.14
43711;BME280;29309;42.682;23.372;2023-03-22T11:51:13;95051.22;;;11.12;76.02
43711;BME280;29309;42.682;23.372;2023-03-22T11:53:44;95049.19;;;11.13;76.74
43711;BME280;29309;42.682;23.372;2023-03-22T11:56:16;95058.31;;;11.15;77.02
43711;BME280;29309;42.682;23.372;2023-03-22T11:58:57;95065.03;;;11.10;76.64
43711;BME280;29309;42.682;23.372;2023-03-22T12:04:38;95055.88;;;11.08;77.06
43711;BME280;29309;42.682;23.372;2023-03-22T12:07:17;95058.66;;;11.08;77.41
43711;BME280;29309;42.682;23.372;2023-03-22T12:09:57;95047.56;;;11.08;77.52
43711;BME280;29309;42.682;23.372;2023-03-22T12:12:29;95049.44;;;11.03;77.69
43711;BME280;29309;42.682;23.372;2023-03-22T12:18:23;95053.94;;;11.10;77.99
43711;BME280;29309;42.682;23.372;2023-03-22T12:20:56;95049.06;;;11.11;78.27
43711;BME280;29309;42.682;23.372;2023-03-22T12:23:31;95044.41;;;11.15;78.69
43711;BME280;29309;42.682;23.372;2023-03-22T12:26:01;95047.31;;;11.17;78.65
43711;BME280;29309;42.682;23.372;2023-03-22T12:31:05;95045.50;;;11.24;78.01
43711;BME280;29309;42.682;23.372;2023-03-22T12:36:13;95046.66;;;11.34;78.12
43711;BME280;29309;42.682;23.372;2023-03-22T12:38:44;95037.97;;;11.42;77.48
43711;BME280;29309;42.682;23.372;2023-03-22T12:41:15;95040.22;;;11.46;77.30
43711;BME280;29309;42.682;23.372;2023-03-22T12:43:53;95037.69;;;11.52;77.10
43711;BME280;29309;42.682;23.372;2023-03-22T12:46:22;95036.72;;;11.61;76.06
43711;BME280;29309;42.682;23.372;2023-03-22T12:48:56;95039.75;;;11.67;75.79
43711;BME280;29309;42.682;23.372;2023-03-22T12:51:22;95035.34;;;11.62;75.36
43711;BME280;29309;42.682;23.372;2023-03-22T12:53:51;95031.28;;;11.65;74.87
43711;BME280;29309;42.682;23.372;2023-03-22T12:56:20;95041.44;;;11.58;72.93
43711;BME280;29309;42.682;23.372;2023-03-22T12:58:50;95035.16;;;11.58;73.81
43711;BME280;29309;42.682;23.372;2023-03-22T13:03:54;95040.22;;;11.46;73.77
43711;BME280;29309;42.682;23.372;2023-03-22T13:19:59;95034.41;;;11.24;72.48
43711;BME280;29309;42.682;23.372;2023-03-22T13:22:28;95037.34;;;11.28;73.09
43711;BME280;29309;42.682;23.372;2023-03-22T13:27:57;95028.31;;;11.27;74.19
43711;BME280;29309;42.682;23.372;2023-03-22T13:30:34;95031.16;;;11.29;74.67
43711;BME280;29309;42.682;23.372;2023-03-22T13:41:06;95030.63;;;11.33;77.70
43711;BME280;29309;42.682;23.372;2023-03-22T13:43:53;95029.91;;;11.32;77.82
43711;BME280;29309;42.682;23.372;2023-03-22T13:54:16;95036.78;;;11.47;78.64
43711;BME280;29309;42.682;23.372;2023-03-22T13:57:02;95038.84;;;11.47;78.58
43711;BME280;29309;42.682;23.372;2023-03-22T13:59:57;95034.84;;;11.50;78.24
43711;BME280;29309;42.682;23.372;2023-03-22T14:02:33;95025.22;;;11.53;77.18
43711;BME280;29309;42.682;23.372;2023-03-22T14:05:08;95037.88;;;11.56;77.17
43711;BME280;29309;42.682;23.372;2023-03-22T14:07:43;95037.69;;;11.52;75.97
43711;BME280;29309;42.682;23.372;2023-03-22T14:10:15;95021.66;;;11.50;75.83
43711;BME280;29309;42.682;23.372;2023-03-22T14:15:15;95028.19;;;11.57;76.55
43711;BME280;29309;42.682;23.372;2023-03-22T14:18:04;95027.53;;;11.58;76.98
43711;BME280;29309;42.682;23.372;2023-03-22T14:20:33;95027.00;;;11.62;77.62
43711;BME280;29309;42.682;23.372;2023-03-22T14:23:04;95025.13;;;11.66;77.67
43711;BME280;29309;42.682;23.372;2023-03-22T14:25:32;95028.19;;;11.72;77.67
43711;BME280;29309;42.682;23.372;2023-03-22T14:27:59;95030.50;;;11.78;77.10
43711;BME280;29309;42.682;23.372;2023-03-22T14:33:12;95027.19;;;11.81;76.97
43711;BME280;29309;42.682;23.372;2023-03-22T14:35:42;95025.75;;;11.80;76.36
43711;BME280;29309;42.682;23.372;2023-03-22T14:38:34;95035.06;;;11.87;76.04
43711;BME280;29309;42.682;23.372;2023-03-22T14:41:14;95032.38;;;11.89;75.38
43711;BME280;29309;42.682;23.372;2023-03-22T14:43:42;95039.44;;;11.92;74.42
43711;BME280;29309;42.682;23.372;2023-03-22T14:46:19;95034.78;;;11.97;74.75
43711;BME280;29309;42.682;23.372;2023-03-22T14:48:54;95032.06;;;11.99;75.15
43711;BME280;29309;42.682;23.372;2023-03-22T14:51:28;95033.41;;;11.98;74.42